createdAt,value
2022-12-16T00:01:19.828Z,88.02
2022-12-16T00:03:51.934Z,87.18
2022-12-16T00:06:20.659Z,87.01
2022-12-16T00:08:48.542Z,87.38
2022-12-16T00:11:16.232Z,87.74
2022-12-16T00:13:44.122Z,86.97
2022-12-16T00:16:15.570Z,87.34
2022-12-16T00:18:43.563Z,87.34
2022-12-16T00:21:11.931Z,87.40
2022-12-16T00:23:41.571Z,87.12
2022-12-16T00:26:09.934Z,87.70
2022-12-16T00:28:37.616Z,87.01
2022-12-16T00:31:06.578Z,86.87
2022-12-16T00:33:36.135Z,86.98
2022-12-16T00:36:04.498Z,86.67
2022-12-16T00:38:32.273Z,87.37
2022-12-16T00:41:00.298Z,87.36
2022-12-16T00:43:28.011Z,86.25
2022-12-16T00:45:56.049Z,86.38
2022-12-16T00:48:25.426Z,85.99
2022-12-16T00:50:55.737Z,85.48
2022-12-16T00:53:26.041Z,85.85
2022-12-16T00:56:01.908Z,86.16
2022-12-16T00:58:30.028Z,85.55
2022-12-16T01:00:57.752Z,86.27
2022-12-16T01:03:26.194Z,85.69
2022-12-16T01:05:55.666Z,85.71
2022-12-16T01:08:24.327Z,85.51
2022-12-16T01:10:53.198Z,85.59
2022-12-16T01:13:25.612Z,86.16
2022-12-16T01:15:54.080Z,86.09
2022-12-16T01:18:22.440Z,86.14
2022-12-16T01:20:50.234Z,85.29
2022-12-16T01:23:20.300Z,85.73
2022-12-16T01:25:52.167Z,85.59
2022-12-16T01:28:20.219Z,85.12
2022-12-16T01:30:47.860Z,85.70
2022-12-16T01:33:15.860Z,85.98
2022-12-16T01:35:55.440Z,85.58
2022-12-16T01:38:25.680Z,86.15
2022-12-16T01:40:55.095Z,86.14
2022-12-16T01:43:27.019Z,86.27
2022-12-16T01:46:00.216Z,86.05
2022-12-16T01:48:37.020Z,86.18
2022-12-16T01:51:09.266Z,86.07
2022-12-16T01:53:40.606Z,85.78
2022-12-16T01:56:08.729Z,85.21
2022-12-16T01:58:39.569Z,84.67
2022-12-16T02:01:07.743Z,85.29
2022-12-16T02:03:37.599Z,85.48
2022-12-16T02:06:07.672Z,85.10
2022-12-16T02:08:37.888Z,84.50
2022-12-16T02:11:15.342Z,84.91
2022-12-16T02:13:59.573Z,85.66
2022-12-16T02:16:33.493Z,85.45
2022-12-16T02:19:05.764Z,85.18
2022-12-16T02:21:46.244Z,84.89
2022-12-16T02:24:42.222Z,85.40
2022-12-16T02:27:38.785Z,84.67
2022-12-16T02:30:23.231Z,85.08
2022-12-16T02:33:03.656Z,85.22
2022-12-16T02:35:36.920Z,84.70
2022-12-16T02:38:15.793Z,84.87
2022-12-16T02:40:46.868Z,84.69
2022-12-16T02:43:23.890Z,84.85
2022-12-16T02:45:51.925Z,85.35
2022-12-16T02:48:21.818Z,85.35
2022-12-16T02:50:52.026Z,84.93
2022-12-16T02:53:21.551Z,84.46
2022-12-16T02:56:00.898Z,84.63
2022-12-16T02:58:36.470Z,84.73
2022-12-16T03:01:12.998Z,84.65
2022-12-16T03:03:47.615Z,84.71
2022-12-16T03:06:18.986Z,85.19
2022-12-16T03:08:51.896Z,84.65
2022-12-16T03:11:19.863Z,84.60
2022-12-16T03:13:51.439Z,84.56
2022-12-16T03:16:23.807Z,84.18
2022-12-16T03:18:57.780Z,84.16
2022-12-16T03:21:30.162Z,83.54
2022-12-16T03:24:01.533Z,83.25
2022-12-16T03:26:35.361Z,83.71
2022-12-16T03:29:09.346Z,83.25
2022-12-16T03:31:41.477Z,83.11
2022-12-16T03:34:18.119Z,83.46
2022-12-16T03:36:51.776Z,83.39
2022-12-16T03:39:23.116Z,83.61
2022-12-16T03:41:54.370Z,83.51
2022-12-16T03:44:25.532Z,83.25
2022-12-16T03:46:53.768Z,83.05
2022-12-16T03:49:24.548Z,83.99
2022-12-16T03:51:53.540Z,83.71
2022-12-16T03:54:21.301Z,83.63
2022-12-16T03:56:48.979Z,84.19
2022-12-16T03:59:16.633Z,83.67
2022-12-16T04:01:44.702Z,83.20
2022-12-16T04:04:12.909Z,83.62
2022-12-16T04:06:41.915Z,84.17
2022-12-16T04:09:09.695Z,83.56
2022-12-16T04:11:55.271Z,84.25
2022-12-16T04:14:41.626Z,83.53
2022-12-16T04:17:31.704Z,84.64
2022-12-16T04:20:16.987Z,84.58
2022-12-16T04:23:03.396Z,84.65
2022-12-16T04:25:34.081Z,84.49
2022-12-16T04:28:01.804Z,84.46
2022-12-16T04:30:34.649Z,84.62
2022-12-16T04:33:23.334Z,84.44
2022-12-16T04:36:09.752Z,84.28
2022-12-16T04:38:56.337Z,84.33
2022-12-16T04:41:41.367Z,83.27
2022-12-16T04:44:27.156Z,83.20
2022-12-16T04:47:12.493Z,82.87
2022-12-16T04:49:57.860Z,83.29
2022-12-16T04:52:43.041Z,82.06
2022-12-16T04:55:30.523Z,81.95
2022-12-16T04:58:17.774Z,82.34
2022-12-16T05:01:06.301Z,82.45
2022-12-16T05:03:52.472Z,81.83
2022-12-16T05:06:38.193Z,81.76
2022-12-16T05:09:24.629Z,82.21
2022-12-16T05:12:12.095Z,82.13
2022-12-16T05:14:57.687Z,81.93
2022-12-16T05:17:42.669Z,81.97
2022-12-16T05:20:29.241Z,82.56
2022-12-16T05:23:14.995Z,82.32
2022-12-16T05:26:01.196Z,82.03
2022-12-16T05:28:48.501Z,82.30
2022-12-16T05:31:34.226Z,82.67
2022-12-16T05:34:19.707Z,81.77
2022-12-16T05:37:04.848Z,82.34
2022-12-16T05:39:50.180Z,82.27
2022-12-16T05:42:35.728Z,81.63
2022-12-16T05:45:23.454Z,82.59
2022-12-16T05:48:08.903Z,82.22
2022-12-16T05:50:55.755Z,82.42
2022-12-16T05:53:41.573Z,81.27
2022-12-16T05:56:38.448Z,82.08
2022-12-16T05:59:23.568Z,82.12
2022-12-16T06:02:10.516Z,82.70
2022-12-16T06:04:56.075Z,82.88
2022-12-16T06:07:41.540Z,83.04
2022-12-16T06:10:27.524Z,83.35
2022-12-16T06:13:12.741Z,82.25
2022-12-16T06:16:01.431Z,82.72
2022-12-16T06:18:50.458Z,83.37
2022-12-16T06:21:37.299Z,83.39
2022-12-16T06:24:28.528Z,84.61
2022-12-16T06:27:13.896Z,84.96
2022-12-16T06:29:59.118Z,83.82
2022-12-16T06:32:44.718Z,84.82
2022-12-16T06:35:31.207Z,84.65
2022-12-16T06:38:17.024Z,83.99
2022-12-16T06:41:01.993Z,82.99
2022-12-16T06:43:48.339Z,82.54
2022-12-16T06:46:33.960Z,82.92
2022-12-16T06:49:19.352Z,83.75
2022-12-16T06:52:06.677Z,83.85
2022-12-16T06:54:51.027Z,84.53
2022-12-16T06:57:36.779Z,83.92
2022-12-16T07:00:23.145Z,84.19
2022-12-16T07:03:08.574Z,83.52
2022-12-16T07:05:54.224Z,83.86
2022-12-16T07:08:41.251Z,84.49
2022-12-16T07:11:26.929Z,84.13
2022-12-16T07:14:12.290Z,83.58
2022-12-16T07:16:57.778Z,85.03
2022-12-16T07:19:42.985Z,84.06
2022-12-16T07:22:28.939Z,83.69
2022-12-16T07:25:15.670Z,83.45
2022-12-16T07:28:04.348Z,83.68
2022-12-16T07:30:49.553Z,83.47
2022-12-16T07:33:35.223Z,83.19
2022-12-16T07:36:21.008Z,82.86
2022-12-16T07:39:06.098Z,82.55
2022-12-16T07:41:52.691Z,82.49
2022-12-16T07:44:38.615Z,82.88
2022-12-16T07:47:24.086Z,82.18
2022-12-16T07:50:09.492Z,82.43
2022-12-16T07:52:55.375Z,82.57
2022-12-16T07:55:40.789Z,82.51
2022-12-16T07:58:28.263Z,81.55
2022-12-16T08:01:10.089Z,81.54
2022-12-16T08:03:56.290Z,80.82
2022-12-16T08:06:41.528Z,80.32
2022-12-16T08:09:32.381Z,79.33
2022-12-16T08:12:17.958Z,79.35
2022-12-16T08:15:04.895Z,79.24
2022-12-16T08:17:59.052Z,78.66
2022-12-16T08:20:49.460Z,79.11
2022-12-16T08:23:35.416Z,80.36
2022-12-16T08:26:21.395Z,80.30
2022-12-16T08:29:27.253Z,79.84
2022-12-16T08:32:13.973Z,78.77
2022-12-16T08:34:59.399Z,78.40
2022-12-16T08:37:44.930Z,78.31
2022-12-16T08:40:37.328Z,80.36
2022-12-16T08:43:23.121Z,79.76
2022-12-16T08:46:11.963Z,81.00
2022-12-16T08:48:59.255Z,81.34
2022-12-16T08:51:44.936Z,82.13
2022-12-16T08:54:30.261Z,81.58
2022-12-16T08:57:15.570Z,81.47
2022-12-16T09:00:00.771Z,80.73
2022-12-16T09:02:46.543Z,80.94
2022-12-16T09:05:33.695Z,79.87
2022-12-16T09:08:20.121Z,78.90
2022-12-16T09:11:05.403Z,79.01
2022-12-16T09:13:50.556Z,78.92
2022-12-16T09:16:37.195Z,78.06
2022-12-16T09:19:22.598Z,79.14
2022-12-16T09:22:09.144Z,77.38
2022-12-16T09:24:54.455Z,77.74
2022-12-16T09:27:41.205Z,77.22
2022-12-16T09:30:28.127Z,76.94
2022-12-16T09:33:13.626Z,77.89
2022-12-16T09:36:00.224Z,77.45
2022-12-16T09:38:46.651Z,77.60
2022-12-16T09:41:47.016Z,76.72
2022-12-16T09:44:45.557Z,75.11
2022-12-16T09:47:42.627Z,77.51
2022-12-16T09:50:37.532Z,79.32
2022-12-16T09:53:25.167Z,78.09
2022-12-16T09:56:12.263Z,78.20
2022-12-16T09:59:05.220Z,77.41
2022-12-16T10:01:54.697Z,77.58
2022-12-16T10:04:51.954Z,77.66
2022-12-16T10:07:40.372Z,77.59
2022-12-16T10:10:39.101Z,78.16
2022-12-16T10:13:36.104Z,77.79
2022-12-16T10:16:31.771Z,77.71
2022-12-16T10:19:26.411Z,78.12
2022-12-16T10:22:19.726Z,78.87
2022-12-16T10:25:29.421Z,80.10
2022-12-16T10:28:24.681Z,79.81
2022-12-16T10:31:12.043Z,80.11
2022-12-16T10:34:09.057Z,80.52
2022-12-16T10:36:56.097Z,80.22
2022-12-16T10:39:59.444Z,79.61
2022-12-16T10:42:48.758Z,79.86
2022-12-16T10:45:39.945Z,78.99
2022-12-16T10:48:27.601Z,78.53
2022-12-16T10:51:13.209Z,79.25
2022-12-16T10:53:58.614Z,80.17
2022-12-16T10:57:06.530Z,79.51
2022-12-16T10:59:54.487Z,79.68
2022-12-16T11:02:43.085Z,79.65
2022-12-16T11:05:49.216Z,79.27
2022-12-16T11:08:44.171Z,77.83
2022-12-16T11:11:40.075Z,76.41
2022-12-16T11:14:38.387Z,75.94
2022-12-16T11:17:32.385Z,76.37
2022-12-16T11:20:34.754Z,74.13
2022-12-16T11:23:32.398Z,74.79
2022-12-16T11:26:35.831Z,75.28
2022-12-16T11:29:25.963Z,73.74
2022-12-16T11:32:16.902Z,73.32
2022-12-16T11:35:08.232Z,72.75
2022-12-16T11:37:56.897Z,71.59
2022-12-16T11:40:44.738Z,70.89
2022-12-16T11:43:33.777Z,70.83
2022-12-16T11:46:22.835Z,70.34
2022-12-16T11:49:13.428Z,69.33
2022-12-16T11:52:28.037Z,68.41
2022-12-16T11:55:15.555Z,68.08
2022-12-16T11:58:09.062Z,67.61
2022-12-16T12:01:07.719Z,67.74
2022-12-16T12:04:01.712Z,67.41
2022-12-16T12:06:58.116Z,68.02
2022-12-16T12:09:46.083Z,68.29
2022-12-16T12:12:41.767Z,68.75
2022-12-16T12:15:41.978Z,69.97
2022-12-16T12:18:35.933Z,70.52
2022-12-16T12:21:27.650Z,70.83
2022-12-16T12:24:22.091Z,71.85
2022-12-16T12:27:15.922Z,71.18
2022-12-16T12:30:16.593Z,71.23
2022-12-16T12:33:14.241Z,71.19
2022-12-16T12:36:10.978Z,71.06
2022-12-16T12:39:05.855Z,70.92
2022-12-16T12:42:01.512Z,70.80
2022-12-16T12:45:00.591Z,70.69
2022-12-16T12:47:49.159Z,70.29
2022-12-16T12:50:46.789Z,70.58
2022-12-16T12:53:45.024Z,70.46
2022-12-16T12:56:41.729Z,69.98
2022-12-16T12:59:33.827Z,69.82
2022-12-16T13:02:23.577Z,70.27
2022-12-16T13:05:10.200Z,69.71
2022-12-16T13:07:57.231Z,70.44
2022-12-16T13:10:52.232Z,70.17
2022-12-16T13:13:49.100Z,69.64
2022-12-16T13:17:07.911Z,70.47
2022-12-16T13:19:59.926Z,70.47
2022-12-16T13:22:48.214Z,71.11
2022-12-16T13:25:56.692Z,70.73
2022-12-16T13:28:49.421Z,71.07
2022-12-16T13:31:35.500Z,70.31
2022-12-16T13:34:26.049Z,70.62
2022-12-16T13:37:20.784Z,71.41
2022-12-16T13:40:22.361Z,71.64
2022-12-16T13:43:13.846Z,71.94
2022-12-16T13:46:01.983Z,71.47
2022-12-16T13:48:56.945Z,72.49
2022-12-16T13:52:25.719Z,73.94
2022-12-16T13:55:27.347Z,73.88
2022-12-16T13:58:22.203Z,76.31
2022-12-16T14:01:16.683Z,76.93
2022-12-16T14:04:05.651Z,77.40
2022-12-16T14:06:53.658Z,77.50
2022-12-16T14:09:48.671Z,78.59
2022-12-16T14:12:52.981Z,79.56
2022-12-16T14:15:47.791Z,80.62
2022-12-16T14:18:44.660Z,79.87
2022-12-16T14:21:35.347Z,80.08
2022-12-16T14:24:29.647Z,79.42
2022-12-16T14:27:15.471Z,78.95
2022-12-16T14:30:02.636Z,79.55
2022-12-16T14:32:51.212Z,78.92
2022-12-16T14:35:38.845Z,79.77
2022-12-16T14:38:42.153Z,80.64
2022-12-16T14:41:34.488Z,80.60
2022-12-16T14:44:21.974Z,80.78
2022-12-16T14:47:09.052Z,80.18
2022-12-16T14:50:09.195Z,81.12
2022-12-16T14:52:54.752Z,80.59
2022-12-16T14:55:47.520Z,80.72
2022-12-16T14:58:35.074Z,80.50
2022-12-16T15:01:24.441Z,80.48
2022-12-16T15:04:12.390Z,80.95
2022-12-16T15:07:02.940Z,80.35
2022-12-16T15:09:52.974Z,80.84
2022-12-16T15:12:44.510Z,80.89
2022-12-16T15:15:34.931Z,80.31
2022-12-16T15:18:21.682Z,81.01
2022-12-16T15:21:10.711Z,81.87
2022-12-16T15:24:00.596Z,81.78
2022-12-16T15:26:48.854Z,81.46
2022-12-16T15:29:47.358Z,82.00
2022-12-16T15:32:48.034Z,82.32
2022-12-16T15:35:43.877Z,82.40
2022-12-16T15:38:31.043Z,81.57
2022-12-16T15:41:17.968Z,82.71
2022-12-16T15:44:16.810Z,82.86
2022-12-16T15:47:06.907Z,82.71
2022-12-16T15:49:57.975Z,83.23
2022-12-16T15:52:54.676Z,82.83
2022-12-16T15:55:45.814Z,83.88
2022-12-16T15:58:37.906Z,83.49
2022-12-16T16:01:25.193Z,83.98
2022-12-16T16:04:13.332Z,84.10
2022-12-16T16:07:15.245Z,83.79
2022-12-16T16:10:01.184Z,84.86
2022-12-16T16:12:46.642Z,84.00
2022-12-16T16:15:34.193Z,84.81
2022-12-16T16:18:21.634Z,84.58
2022-12-16T16:21:08.193Z,85.24
2022-12-16T16:23:54.272Z,84.87
2022-12-16T16:26:50.246Z,84.25
2022-12-16T16:29:47.216Z,83.98
2022-12-16T16:32:34.658Z,84.14
2022-12-16T16:35:20.180Z,84.70
2022-12-16T16:38:06.093Z,83.64
2022-12-16T16:40:54.251Z,83.63
2022-12-16T16:43:40.037Z,83.95
2022-12-16T16:46:46.322Z,83.79
2022-12-16T16:49:36.031Z,83.52
2022-12-16T16:52:21.450Z,83.18
2022-12-16T16:55:07.339Z,84.00
2022-12-16T16:57:56.243Z,83.58
2022-12-16T17:00:42.032Z,82.96
2022-12-16T17:03:27.969Z,83.99
2022-12-16T17:06:15.556Z,83.59
2022-12-16T17:09:00.873Z,83.41
2022-12-16T17:11:47.675Z,83.58
2022-12-16T17:14:35.566Z,83.57
2022-12-16T17:17:21.773Z,83.22
2022-12-16T17:20:07.947Z,83.46
2022-12-16T17:22:54.607Z,83.60
2022-12-16T17:25:40.610Z,83.94
2022-12-16T17:28:26.424Z,84.17
2022-12-16T17:31:11.929Z,83.36
2022-12-16T17:33:57.494Z,83.61
2022-12-16T17:36:42.840Z,83.44
2022-12-16T17:39:30.128Z,83.09
2022-12-16T17:42:16.033Z,83.81
2022-12-16T17:45:01.137Z,83.46
2022-12-16T17:47:47.472Z,84.12
2022-12-16T17:50:32.903Z,83.82
2022-12-16T17:53:18.607Z,83.69
2022-12-16T17:56:05.178Z,83.14
2022-12-16T17:58:54.107Z,83.48
2022-12-16T18:01:40.343Z,83.85
2022-12-16T18:04:26.200Z,83.36
2022-12-16T18:07:11.676Z,84.00
2022-12-16T18:09:57.196Z,84.19
2022-12-16T18:12:44.925Z,83.73
2022-12-16T18:15:30.033Z,84.76
2022-12-16T18:18:15.861Z,84.06
2022-12-16T18:21:01.343Z,84.53
2022-12-16T18:23:48.056Z,84.03
2022-12-16T18:26:33.745Z,84.68
2022-12-16T18:29:20.180Z,84.85
2022-12-16T18:32:06.521Z,83.46
2022-12-16T18:34:52.383Z,83.35
2022-12-16T18:37:42.081Z,83.13
2022-12-16T18:40:28.915Z,84.15
2022-12-16T18:43:17.216Z,84.45
2022-12-16T18:46:10.360Z,83.92
2022-12-16T18:49:04.831Z,84.95
2022-12-16T18:51:50.622Z,83.82
2022-12-16T18:54:36.365Z,83.09
2022-12-16T18:57:21.855Z,83.10
2022-12-16T19:00:07.836Z,83.38
2022-12-16T19:02:55.525Z,83.94
2022-12-16T19:05:41.635Z,83.62
2022-12-16T19:08:27.497Z,83.32
2022-12-16T19:11:15.806Z,83.38
2022-12-16T19:14:02.076Z,83.35
2022-12-16T19:16:48.066Z,83.13
2022-12-16T19:19:34.767Z,82.59
2022-12-16T19:22:20.985Z,82.89
2022-12-16T19:25:06.268Z,83.00
2022-12-16T19:27:52.731Z,82.52
2022-12-16T19:30:50.220Z,81.57
2022-12-16T19:33:35.692Z,82.60
2022-12-16T19:36:22.686Z,82.50
2022-12-16T19:39:08.805Z,81.89
2022-12-16T19:41:56.212Z,82.31
2022-12-16T19:44:41.918Z,82.25
2022-12-16T19:47:27.537Z,82.09
2022-12-16T19:50:12.922Z,82.18
2022-12-16T19:53:00.141Z,82.17
2022-12-16T19:55:45.508Z,82.08
2022-12-16T19:58:32.082Z,81.91
2022-12-16T20:01:17.462Z,82.37
2022-12-16T20:04:03.309Z,82.70
2022-12-16T20:06:49.440Z,82.93
2022-12-16T20:09:36.308Z,83.07
2022-12-16T20:12:21.907Z,83.14
2022-12-16T20:15:07.051Z,83.42
2022-12-16T20:17:52.467Z,83.21
2022-12-16T20:20:41.644Z,82.62
2022-12-16T20:23:27.514Z,82.70
2022-12-16T20:26:15.689Z,82.77
2022-12-16T20:29:02.359Z,82.18
2022-12-16T20:31:48.135Z,82.39
2022-12-16T20:34:33.741Z,82.64
2022-12-16T20:37:18.965Z,81.76
2022-12-16T20:40:04.708Z,81.64
2022-12-16T20:42:51.412Z,81.57
2022-12-16T20:45:38.983Z,81.21
2022-12-16T20:48:24.451Z,80.67
2022-12-16T20:51:13.628Z,80.96
2022-12-16T20:53:59.744Z,80.57
2022-12-16T20:56:45.076Z,81.00
2022-12-16T20:59:32.105Z,81.39
2022-12-16T21:02:27.928Z,80.52
2022-12-16T21:05:17.367Z,81.26
2022-12-16T21:08:02.944Z,80.97
2022-12-16T21:10:49.556Z,80.74
2022-12-16T21:13:36.483Z,81.18
2022-12-16T21:16:25.305Z,81.04
2022-12-16T21:19:11.472Z,80.44
2022-12-16T21:21:56.808Z,80.32
2022-12-16T21:24:43.050Z,79.99
2022-12-16T21:27:28.692Z,80.21
2022-12-16T21:30:14.158Z,80.80
2022-12-16T21:33:00.979Z,80.49
2022-12-16T21:35:47.014Z,80.70
2022-12-16T21:38:32.760Z,80.28
2022-12-16T21:41:17.984Z,79.97
2022-12-16T21:44:03.273Z,79.47
2022-12-16T21:46:48.802Z,80.00
2022-12-16T21:49:35.923Z,80.07
2022-12-16T21:52:20.964Z,79.63
2022-12-16T21:55:06.859Z,80.13
2022-12-16T21:57:53.332Z,80.28
2022-12-16T22:00:40.702Z,80.11
2022-12-16T22:03:26.357Z,80.60
2022-12-16T22:06:17.428Z,81.15
2022-12-16T22:09:03.030Z,81.43
2022-12-16T22:11:48.538Z,80.49
2022-12-16T22:14:34.600Z,80.45
2022-12-16T22:17:19.922Z,79.89
2022-12-16T22:20:05.648Z,79.31
2022-12-16T22:22:52.511Z,79.98
2022-12-16T22:25:38.011Z,80.19
2022-12-16T22:28:24.959Z,80.47
2022-12-16T22:31:16.150Z,80.99
2022-12-16T22:34:01.433Z,81.61
2022-12-16T22:36:47.082Z,80.88
2022-12-16T22:39:33.600Z,81.62
2022-12-16T22:42:18.898Z,82.17
2022-12-16T22:45:04.120Z,82.18
2022-12-16T22:47:49.703Z,82.62
2022-12-16T22:50:35.546Z,82.84
2022-12-16T22:53:21.220Z,83.69
2022-12-16T22:56:10.862Z,83.44
2022-12-16T22:58:55.244Z,83.54
2022-12-16T23:01:41.891Z,84.02
2022-12-16T23:04:27.566Z,84.09
2022-12-16T23:07:13.761Z,83.51
2022-12-16T23:09:59.514Z,83.55
2022-12-16T23:12:46.199Z,82.59
2022-12-16T23:15:32.435Z,84.08
2022-12-16T23:18:17.784Z,84.00
2022-12-16T23:21:05.440Z,84.01
2022-12-16T23:23:50.612Z,84.11
2022-12-16T23:26:37.332Z,83.97
2022-12-16T23:29:39.180Z,83.76
2022-12-16T23:32:24.347Z,84.10
2022-12-16T23:35:09.809Z,83.87
2022-12-16T23:37:55.003Z,84.45
2022-12-16T23:40:42.237Z,84.36
2022-12-16T23:43:27.454Z,83.88
2022-12-16T23:46:14.575Z,83.67
2022-12-16T23:48:59.954Z,83.69
2022-12-16T23:51:45.199Z,83.68
2022-12-16T23:54:30.267Z,83.64
2022-12-16T23:57:15.575Z,83.14
